logo
Rechercher aéroport 
image banner adimage banner adimage banner ad
image banner ad

YGTL - Great Lake

Situé à Deloraine, Australia

ICAO - , IATA -

Données fournies par Airmate  

Information générale

Coordonnées: S41°52'0" E146°43'60"
Élévation : 3392 feet MSL.
Variation magnétique : 14° East
Voir autres Aéroports à Tasmania

Données opérationnelles

Special qualification required
Heure actuelle UTC:
Heure actuelle locale:
Météo à : YMLT - Launceston ( 54 km )
TAF: TAF AMD YMLT 240531Z 2406/2506 16010KT 9999 SCT045 FM241000 15006KT CAVOK PROB30 2418/2422 3000 BR
Voir NOTAMs / SUP AIP / TFR affectant cet aéroport [VIEW]
Fréquences de communication: [VIEW]

Pistes:

Coordonnées de l'aéroport

Adresse: Deloraine Australia

Vue satellite de YGTL